Cyclone, Texas
Current Conditions -  °F | °C
As of 11:15 AM on Sunday 21 Dec 2014 (Local Time) from KT35 Reporting Station
Overcast Overcast  
Wind Chill: 51°   Ceiling: 1400
Heat Index: 51°   Visibility: 10mi
Dew Point: 47°   Wind: 3mph
Humidity: 89%   Direction: 170°S
Pressure: 30.1"   Gusts: NA
Location:  30.9882°N, 97.103°W
Report Text: KT35 211715Z AUTO 17003KT 10SM SCT010 BKN014 OVC019 10/09 A3010 RMK AO2 T01040086
Loading
Personal Weather Stations






























Interactive Weather Map New forecast layout! Learn more

10-Day Weather Forecast

Advertisements
Track Severe Weather on mobile